METAR Data
IDs: Format: Raw Decoded Include TAF

Data at: 0710 UTC 23 Oct 2018

METAR for:KIND (Indianapolis Intl, IN, US)
Text:KIND 230654Z 23009KT 10SM CLR 08/04 A3013 RMK AO2 SLP203 T00780039
Temperature: 7.8°C ( 46°F)
Dewpoint: 3.9°C ( 39°F) [RH = 76%]
Pressure (altimeter):30.13 inches Hg (1020.4 mb) [Sea level pressure: 1020.3 mb]
Winds:from the SW (230 degrees) at 10 MPH (9 knots; 4.6 m/s)
Visibility:10 or more sm (16+ km)
Ceiling:at least 12,000 feet AGL
Clouds:sky clear below 12,000 feet AGL